sensor_id;sensor_type;location;lat;lon;timestamp;P1;durP1;ratioP1;P2;durP2;ratioP2
43088;SDS011;28709;52.030;5.652;2022-11-12T00:00:36;13.98;;;7.63;;
43088;SDS011;28709;52.030;5.652;2022-11-12T00:03:02;12.88;;;7.82;;
43088;SDS011;28709;52.030;5.652;2022-11-12T00:05:28;12.25;;;6.90;;
43088;SDS011;28709;52.030;5.652;2022-11-12T00:07:54;11.73;;;6.70;;
43088;SDS011;28709;52.030;5.652;2022-11-12T00:10:20;11.68;;;7.18;;
43088;SDS011;28709;52.030;5.652;2022-11-12T00:12:46;10.52;;;6.70;;
43088;SDS011;28709;52.030;5.652;2022-11-12T00:15:12;12.13;;;6.90;;
43088;SDS011;28709;52.030;5.652;2022-11-12T00:17:38;11.73;;;6.50;;
43088;SDS011;28709;52.030;5.652;2022-11-12T00:20:04;12.75;;;6.15;;
43088;SDS011;28709;52.030;5.652;2022-11-12T00:22:30;10.15;;;6.50;;
43088;SDS011;28709;52.030;5.652;2022-11-12T00:24:56;12.77;;;6.20;;
43088;SDS011;28709;52.030;5.652;2022-11-12T00:27:22;11.32;;;6.47;;
43088;SDS011;28709;52.030;5.652;2022-11-12T00:29:47;9.75;;;6.35;;
43088;SDS011;28709;52.030;5.652;2022-11-12T00:32:13;12.13;;;6.57;;
43088;SDS011;28709;52.030;5.652;2022-11-12T00:34:39;11.82;;;7.57;;
43088;SDS011;28709;52.030;5.652;2022-11-12T00:37:04;12.75;;;7.22;;
43088;SDS011;28709;52.030;5.652;2022-11-12T00:39:30;14.18;;;7.63;;
43088;SDS011;28709;52.030;5.652;2022-11-12T00:41:56;9.95;;;6.75;;
43088;SDS011;28709;52.030;5.652;2022-11-12T00:44:21;12.68;;;7.03;;
43088;SDS011;28709;52.030;5.652;2022-11-12T00:46:47;16.50;;;8.05;;
43088;SDS011;28709;52.030;5.652;2022-11-12T00:49:13;11.18;;;7.10;;
43088;SDS011;28709;52.030;5.652;2022-11-12T00:51:39;11.77;;;7.20;;
43088;SDS011;28709;52.030;5.652;2022-11-12T00:54:05;11.82;;;7.10;;
43088;SDS011;28709;52.030;5.652;2022-11-12T00:56:31;12.65;;;7.22;;
43088;SDS011;28709;52.030;5.652;2022-11-12T00:58:57;10.60;;;6.63;;
43088;SDS011;28709;52.030;5.652;2022-11-12T01:01:24;12.77;;;8.07;;
43088;SDS011;28709;52.030;5.652;2022-11-12T01:03:49;12.15;;;6.80;;
43088;SDS011;28709;52.030;5.652;2022-11-12T01:06:17;13.35;;;7.20;;
43088;SDS011;28709;52.030;5.652;2022-11-12T01:08:45;13.85;;;6.72;;
43088;SDS011;28709;52.030;5.652;2022-11-12T01:11:22;17.27;;;8.38;;
43088;SDS011;28709;52.030;5.652;2022-11-12T01:13:54;15.00;;;8.30;;
43088;SDS011;28709;52.030;5.652;2022-11-12T01:16:23;13.52;;;7.78;;
43088;SDS011;28709;52.030;5.652;2022-11-12T01:18:52;15.27;;;7.93;;
43088;SDS011;28709;52.030;5.652;2022-11-12T01:21:23;11.55;;;7.25;;
43088;SDS011;28709;52.030;5.652;2022-11-12T01:23:50;14.60;;;8.23;;
43088;SDS011;28709;52.030;5.652;2022-11-12T01:26:17;14.63;;;8.52;;
43088;SDS011;28709;52.030;5.652;2022-11-12T01:28:45;14.02;;;8.38;;
43088;SDS011;28709;52.030;5.652;2022-11-12T01:31:12;11.98;;;7.20;;
43088;SDS011;28709;52.030;5.652;2022-11-12T01:34:07;15.20;;;9.02;;
43088;SDS011;28709;52.030;5.652;2022-11-12T01:36:35;15.00;;;8.95;;
43088;SDS011;28709;52.030;5.652;2022-11-12T01:39:02;16.45;;;9.23;;
43088;SDS011;28709;52.030;5.652;2022-11-12T01:41:30;15.75;;;7.35;;
43088;SDS011;28709;52.030;5.652;2022-11-12T01:44:10;13.30;;;7.90;;
43088;SDS011;28709;52.030;5.652;2022-11-12T01:46:40;12.45;;;7.82;;
43088;SDS011;28709;52.030;5.652;2022-11-12T01:52:42;16.05;;;8.88;;
43088;SDS011;28709;52.030;5.652;2022-11-12T01:55:15;13.55;;;7.63;;
43088;SDS011;28709;52.030;5.652;2022-11-12T02:00:15;16.83;;;8.48;;
43088;SDS011;28709;52.030;5.652;2022-11-12T02:02:42;13.48;;;7.35;;
43088;SDS011;28709;52.030;5.652;2022-11-12T02:05:13;14.75;;;8.25;;
43088;SDS011;28709;52.030;5.652;2022-11-12T02:07:40;14.50;;;8.40;;
43088;SDS011;28709;52.030;5.652;2022-11-12T02:10:08;14.95;;;8.10;;
43088;SDS011;28709;52.030;5.652;2022-11-12T02:12:34;14.73;;;8.02;;
43088;SDS011;28709;52.030;5.652;2022-11-12T02:15:19;13.57;;;7.93;;
43088;SDS011;28709;52.030;5.652;2022-11-12T02:17:45;17.35;;;8.68;;
43088;SDS011;28709;52.030;5.652;2022-11-12T02:20:11;12.07;;;8.02;;
43088;SDS011;28709;52.030;5.652;2022-11-12T02:22:37;11.65;;;7.90;;
43088;SDS011;28709;52.030;5.652;2022-11-12T02:25:03;11.02;;;7.07;;
43088;SDS011;28709;52.030;5.652;2022-11-12T02:27:29;13.27;;;7.22;;
43088;SDS011;28709;52.030;5.652;2022-11-12T02:29:55;13.27;;;7.20;;
43088;SDS011;28709;52.030;5.652;2022-11-12T02:32:21;11.07;;;6.65;;
43088;SDS011;28709;52.030;5.652;2022-11-12T02:34:46;12.88;;;6.55;;
43088;SDS011;28709;52.030;5.652;2022-11-12T02:37:12;12.80;;;7.30;;
43088;SDS011;28709;52.030;5.652;2022-11-12T02:39:38;10.27;;;5.95;;
43088;SDS011;28709;52.030;5.652;2022-11-12T02:42:03;11.75;;;6.88;;
43088;SDS011;28709;52.030;5.652;2022-11-12T02:44:29;12.45;;;6.57;;
43088;SDS011;28709;52.030;5.652;2022-11-12T02:46:55;14.32;;;8.18;;
43088;SDS011;28709;52.030;5.652;2022-11-12T02:49:21;13.43;;;7.38;;
43088;SDS011;28709;52.030;5.652;2022-11-12T02:51:47;16.48;;;8.23;;
43088;SDS011;28709;52.030;5.652;2022-11-12T02:54:12;17.58;;;9.48;;
43088;SDS011;28709;52.030;5.652;2022-11-12T02:56:38;17.70;;;8.48;;
43088;SDS011;28709;52.030;5.652;2022-11-12T02:59:03;13.35;;;8.27;;
43088;SDS011;28709;52.030;5.652;2022-11-12T03:01:29;12.85;;;7.65;;
43088;SDS011;28709;52.030;5.652;2022-11-12T03:03:55;14.18;;;8.45;;
43088;SDS011;28709;52.030;5.652;2022-11-12T03:06:20;11.68;;;7.32;;
43088;SDS011;28709;52.030;5.652;2022-11-12T03:08:46;15.02;;;8.00;;
43088;SDS011;28709;52.030;5.652;2022-11-12T03:11:13;12.02;;;7.68;;
43088;SDS011;28709;52.030;5.652;2022-11-12T03:13:40;16.75;;;9.02;;
43088;SDS011;28709;52.030;5.652;2022-11-12T03:16:05;13.02;;;7.95;;
43088;SDS011;28709;52.030;5.652;2022-11-12T03:18:31;14.30;;;7.28;;
43088;SDS011;28709;52.030;5.652;2022-11-12T03:20:57;14.63;;;8.32;;
43088;SDS011;28709;52.030;5.652;2022-11-12T03:23:24;12.27;;;7.90;;
43088;SDS011;28709;52.030;5.652;2022-11-12T03:25:51;15.18;;;8.50;;
43088;SDS011;28709;52.030;5.652;2022-11-12T03:28:17;18.25;;;9.55;;
43088;SDS011;28709;52.030;5.652;2022-11-12T03:30:43;16.50;;;8.20;;
43088;SDS011;28709;52.030;5.652;2022-11-12T03:33:09;14.18;;;8.70;;
43088;SDS011;28709;52.030;5.652;2022-11-12T03:35:37;17.67;;;9.35;;
43088;SDS011;28709;52.030;5.652;2022-11-12T03:38:03;15.65;;;9.82;;
43088;SDS011;28709;52.030;5.652;2022-11-12T03:40:30;11.60;;;7.82;;
43088;SDS011;28709;52.030;5.652;2022-11-12T03:42:57;13.27;;;7.30;;
43088;SDS011;28709;52.030;5.652;2022-11-12T03:45:23;12.82;;;8.13;;
43088;SDS011;28709;52.030;5.652;2022-11-12T03:47:51;13.80;;;8.25;;
43088;SDS011;28709;52.030;5.652;2022-11-12T03:50:21;16.45;;;9.40;;
43088;SDS011;28709;52.030;5.652;2022-11-12T03:52:49;13.25;;;8.18;;
43088;SDS011;28709;52.030;5.652;2022-11-12T03:55:17;12.20;;;7.68;;
43088;SDS011;28709;52.030;5.652;2022-11-12T03:57:46;12.90;;;7.15;;
43088;SDS011;28709;52.030;5.652;2022-11-12T04:00:13;11.32;;;6.63;;
43088;SDS011;28709;52.030;5.652;2022-11-12T04:02:39;11.75;;;6.97;;
43088;SDS011;28709;52.030;5.652;2022-11-12T04:05:05;11.80;;;7.05;;
43088;SDS011;28709;52.030;5.652;2022-11-12T04:07:57;12.48;;;6.97;;
43088;SDS011;28709;52.030;5.652;2022-11-12T04:10:42;10.93;;;6.85;;
43088;SDS011;28709;52.030;5.652;2022-11-12T04:13:08;14.98;;;7.55;;
43088;SDS011;28709;52.030;5.652;2022-11-12T04:15:53;14.53;;;8.43;;
43088;SDS011;28709;52.030;5.652;2022-11-12T04:18:38;16.65;;;7.90;;
43088;SDS011;28709;52.030;5.652;2022-11-12T04:21:24;13.45;;;8.18;;
43088;SDS011;28709;52.030;5.652;2022-11-12T04:24:12;13.43;;;7.88;;
43088;SDS011;28709;52.030;5.652;2022-11-12T04:26:58;12.40;;;7.93;;
43088;SDS011;28709;52.030;5.652;2022-11-12T04:29:23;14.55;;;8.15;;
43088;SDS011;28709;52.030;5.652;2022-11-12T04:32:07;13.50;;;7.25;;
43088;SDS011;28709;52.030;5.652;2022-11-12T04:34:33;14.05;;;8.43;;
43088;SDS011;28709;52.030;5.652;2022-11-12T04:37:00;11.45;;;8.10;;
43088;SDS011;28709;52.030;5.652;2022-11-12T04:39:27;10.80;;;7.00;;
43088;SDS011;28709;52.030;5.652;2022-11-12T04:41:54;11.50;;;6.85;;
43088;SDS011;28709;52.030;5.652;2022-11-12T04:44:38;10.00;;;5.90;;
43088;SDS011;28709;52.030;5.652;2022-11-12T04:47:23;10.95;;;7.22;;
43088;SDS011;28709;52.030;5.652;2022-11-12T04:49:49;13.73;;;7.47;;
43088;SDS011;28709;52.030;5.652;2022-11-12T04:52:15;16.08;;;7.70;;
43088;SDS011;28709;52.030;5.652;2022-11-12T04:54:42;12.32;;;8.18;;
43088;SDS011;28709;52.030;5.652;2022-11-12T04:57:07;16.88;;;7.72;;
43088;SDS011;28709;52.030;5.652;2022-11-12T04:59:33;13.25;;;6.50;;
43088;SDS011;28709;52.030;5.652;2022-11-12T05:01:58;14.02;;;7.35;;
43088;SDS011;28709;52.030;5.652;2022-11-12T05:04:24;9.35;;;6.38;;
43088;SDS011;28709;52.030;5.652;2022-11-12T05:06:53;12.20;;;7.13;;
43088;SDS011;28709;52.030;5.652;2022-11-12T05:09:23;11.13;;;7.20;;
43088;SDS011;28709;52.030;5.652;2022-11-12T05:11:51;11.65;;;6.82;;
43088;SDS011;28709;52.030;5.652;2022-11-12T05:14:19;13.75;;;6.32;;
43088;SDS011;28709;52.030;5.652;2022-11-12T05:16:45;10.88;;;6.22;;
43088;SDS011;28709;52.030;5.652;2022-11-12T05:19:11;9.85;;;6.13;;
43088;SDS011;28709;52.030;5.652;2022-11-12T05:21:37;11.60;;;6.55;;
43088;SDS011;28709;52.030;5.652;2022-11-12T05:24:22;11.27;;;6.55;;
43088;SDS011;28709;52.030;5.652;2022-11-12T05:26:48;11.68;;;6.43;;
43088;SDS011;28709;52.030;5.652;2022-11-12T05:29:14;8.68;;;5.72;;
43088;SDS011;28709;52.030;5.652;2022-11-12T05:31:40;10.02;;;5.70;;
43088;SDS011;28709;52.030;5.652;2022-11-12T05:34:05;9.90;;;6.22;;
43088;SDS011;28709;52.030;5.652;2022-11-12T05:36:31;12.57;;;6.35;;
43088;SDS011;28709;52.030;5.652;2022-11-12T05:38:58;9.68;;;5.65;;
43088;SDS011;28709;52.030;5.652;2022-11-12T05:41:24;10.45;;;6.25;;
43088;SDS011;28709;52.030;5.652;2022-11-12T05:43:49;13.02;;;7.25;;
43088;SDS011;28709;52.030;5.652;2022-11-12T05:46:15;10.48;;;6.45;;
43088;SDS011;28709;52.030;5.652;2022-11-12T05:48:41;10.73;;;6.25;;
43088;SDS011;28709;52.030;5.652;2022-11-12T05:51:06;12.07;;;5.97;;
43088;SDS011;28709;52.030;5.652;2022-11-12T05:53:32;9.93;;;6.03;;
43088;SDS011;28709;52.030;5.652;2022-11-12T05:56:01;8.60;;;5.20;;
43088;SDS011;28709;52.030;5.652;2022-11-12T05:58:28;7.18;;;4.80;;
43088;SDS011;28709;52.030;5.652;2022-11-12T06:00:53;10.23;;;5.00;;
43088;SDS011;28709;52.030;5.652;2022-11-12T06:03:19;9.18;;;5.70;;
43088;SDS011;28709;52.030;5.652;2022-11-12T06:05:44;10.60;;;5.30;;
43088;SDS011;28709;52.030;5.652;2022-11-12T06:08:10;7.20;;;4.70;;
43088;SDS011;28709;52.030;5.652;2022-11-12T06:10:36;7.85;;;4.88;;
43088;SDS011;28709;52.030;5.652;2022-11-12T06:13:01;8.18;;;5.10;;
43088;SDS011;28709;52.030;5.652;2022-11-12T06:15:27;9.18;;;5.25;;
43088;SDS011;28709;52.030;5.652;2022-11-12T06:17:53;11.27;;;6.28;;
43088;SDS011;28709;52.030;5.652;2022-11-12T06:20:19;11.27;;;6.07;;
43088;SDS011;28709;52.030;5.652;2022-11-12T06:22:48;8.65;;;5.45;;
43088;SDS011;28709;52.030;5.652;2022-11-12T06:25:14;9.95;;;5.75;;
43088;SDS011;28709;52.030;5.652;2022-11-12T06:27:41;7.72;;;4.70;;
43088;SDS011;28709;52.030;5.652;2022-11-12T06:30:07;11.93;;;6.25;;
43088;SDS011;28709;52.030;5.652;2022-11-12T06:32:33;10.75;;;6.35;;
43088;SDS011;28709;52.030;5.652;2022-11-12T06:34:59;7.72;;;5.03;;
43088;SDS011;28709;52.030;5.652;2022-11-12T06:37:25;6.82;;;4.22;;
43088;SDS011;28709;52.030;5.652;2022-11-12T06:39:50;6.60;;;4.32;;
43088;SDS011;28709;52.030;5.652;2022-11-12T06:42:16;8.27;;;5.03;;
43088;SDS011;28709;52.030;5.652;2022-11-12T06:44:42;10.00;;;5.00;;
43088;SDS011;28709;52.030;5.652;2022-11-12T06:47:08;6.85;;;4.07;;
43088;SDS011;28709;52.030;5.652;2022-11-12T06:49:34;7.43;;;4.03;;
43088;SDS011;28709;52.030;5.652;2022-11-12T06:52:00;9.07;;;5.03;;
43088;SDS011;28709;52.030;5.652;2022-11-12T06:54:25;8.38;;;5.00;;
43088;SDS011;28709;52.030;5.652;2022-11-12T06:56:51;14.13;;;6.00;;
43088;SDS011;28709;52.030;5.652;2022-11-12T06:59:17;8.25;;;5.05;;
43088;SDS011;28709;52.030;5.652;2022-11-12T07:01:42;10.27;;;5.68;;
43088;SDS011;28709;52.030;5.652;2022-11-12T07:04:08;9.90;;;4.38;;
43088;SDS011;28709;52.030;5.652;2022-11-12T07:06:34;11.05;;;6.30;;
43088;SDS011;28709;52.030;5.652;2022-11-12T07:09:01;9.75;;;5.65;;
43088;SDS011;28709;52.030;5.652;2022-11-12T07:11:29;8.63;;;4.72;;
43088;SDS011;28709;52.030;5.652;2022-11-12T07:13:55;8.70;;;5.63;;
43088;SDS011;28709;52.030;5.652;2022-11-12T07:16:21;8.55;;;4.80;;
43088;SDS011;28709;52.030;5.652;2022-11-12T07:18:46;10.30;;;5.00;;
43088;SDS011;28709;52.030;5.652;2022-11-12T07:21:19;7.50;;;4.15;;
43088;SDS011;28709;52.030;5.652;2022-11-12T07:23:45;7.50;;;4.20;;
43088;SDS011;28709;52.030;5.652;2022-11-12T07:26:13;7.57;;;5.07;;
43088;SDS011;28709;52.030;5.652;2022-11-12T07:28:40;7.55;;;4.80;;
43088;SDS011;28709;52.030;5.652;2022-11-12T07:31:07;10.13;;;4.25;;
43088;SDS011;28709;52.030;5.652;2022-11-12T07:33:35;12.13;;;5.22;;
43088;SDS011;28709;52.030;5.652;2022-11-12T07:36:02;7.65;;;4.10;;
43088;SDS011;28709;52.030;5.652;2022-11-12T07:38:38;7.38;;;4.10;;
43088;SDS011;28709;52.030;5.652;2022-11-12T07:41:06;10.40;;;4.60;;
43088;SDS011;28709;52.030;5.652;2022-11-12T07:43:42;7.10;;;4.43;;
43088;SDS011;28709;52.030;5.652;2022-11-12T07:46:09;5.88;;;4.07;;
43088;SDS011;28709;52.030;5.652;2022-11-12T07:48:40;5.53;;;3.80;;
43088;SDS011;28709;52.030;5.652;2022-11-12T07:51:28;8.45;;;3.88;;
43088;SDS011;28709;52.030;5.652;2022-11-12T07:53:54;7.03;;;4.55;;
43088;SDS011;28709;52.030;5.652;2022-11-12T07:56:22;8.07;;;4.78;;
43088;SDS011;28709;52.030;5.652;2022-11-12T07:58:49;7.50;;;4.88;;
43088;SDS011;28709;52.030;5.652;2022-11-12T08:03:52;7.53;;;4.60;;
43088;SDS011;28709;52.030;5.652;2022-11-12T08:06:18;7.57;;;4.30;;
43088;SDS011;28709;52.030;5.652;2022-11-12T08:08:43;7.85;;;4.65;;
43088;SDS011;28709;52.030;5.652;2022-11-12T08:11:09;10.80;;;5.28;;
43088;SDS011;28709;52.030;5.652;2022-11-12T08:13:35;8.05;;;4.80;;
43088;SDS011;28709;52.030;5.652;2022-11-12T08:16:00;15.38;;;6.72;;
43088;SDS011;28709;52.030;5.652;2022-11-12T08:18:26;11.68;;;6.10;;
43088;SDS011;28709;52.030;5.652;2022-11-12T08:20:58;13.38;;;5.53;;
43088;SDS011;28709;52.030;5.652;2022-11-12T08:23:28;8.45;;;4.32;;
43088;SDS011;28709;52.030;5.652;2022-11-12T08:25:57;7.38;;;4.68;;
43088;SDS011;28709;52.030;5.652;2022-11-12T08:28:24;9.20;;;5.00;;
43088;SDS011;28709;52.030;5.652;2022-11-12T08:30:50;7.30;;;4.47;;
43088;SDS011;28709;52.030;5.652;2022-11-12T08:33:15;8.63;;;5.05;;
43088;SDS011;28709;52.030;5.652;2022-11-12T08:35:41;10.77;;;5.55;;
43088;SDS011;28709;52.030;5.652;2022-11-12T08:38:07;9.60;;;5.15;;
43088;SDS011;28709;52.030;5.652;2022-11-12T08:40:34;9.90;;;5.78;;
43088;SDS011;28709;52.030;5.652;2022-11-12T08:43:07;9.23;;;4.95;;
43088;SDS011;28709;52.030;5.652;2022-11-12T08:45:35;11.05;;;4.70;;
43088;SDS011;28709;52.030;5.652;2022-11-12T08:48:03;9.32;;;5.05;;
43088;SDS011;28709;52.030;5.652;2022-11-12T08:50:32;8.45;;;4.68;;
43088;SDS011;28709;52.030;5.652;2022-11-12T08:53:01;14.25;;;5.53;;
43088;SDS011;28709;52.030;5.652;2022-11-12T08:55:29;8.02;;;4.97;;
43088;SDS011;28709;52.030;5.652;2022-11-12T08:57:56;10.57;;;5.05;;
43088;SDS011;28709;52.030;5.652;2022-11-12T09:00:28;7.40;;;4.28;;
43088;SDS011;28709;52.030;5.652;2022-11-12T09:03:05;8.77;;;3.60;;
43088;SDS011;28709;52.030;5.652;2022-11-12T09:05:35;7.97;;;4.03;;
43088;SDS011;28709;52.030;5.652;2022-11-12T09:08:03;6.40;;;3.90;;
43088;SDS011;28709;52.030;5.652;2022-11-12T09:10:32;6.47;;;3.72;;
43088;SDS011;28709;52.030;5.652;2022-11-12T09:12:59;5.20;;;3.50;;
43088;SDS011;28709;52.030;5.652;2022-11-12T09:15:25;7.40;;;4.03;;
43088;SDS011;28709;52.030;5.652;2022-11-12T09:17:57;8.32;;;3.72;;
43088;SDS011;28709;52.030;5.652;2022-11-12T09:20:24;8.07;;;3.80;;
43088;SDS011;28709;52.030;5.652;2022-11-12T09:22:50;8.50;;;3.55;;
43088;SDS011;28709;52.030;5.652;2022-11-12T09:25:17;5.72;;;3.00;;
43088;SDS011;28709;52.030;5.652;2022-11-12T09:27:43;3.78;;;3.00;;
43088;SDS011;28709;52.030;5.652;2022-11-12T09:30:08;6.07;;;3.58;;
43088;SDS011;28709;52.030;5.652;2022-11-12T09:32:34;8.88;;;3.17;;
43088;SDS011;28709;52.030;5.652;2022-11-12T09:35:00;5.57;;;3.30;;
43088;SDS011;28709;52.030;5.652;2022-11-12T09:37:26;6.05;;;3.72;;
43088;SDS011;28709;52.030;5.652;2022-11-12T09:39:51;5.60;;;3.05;;
43088;SDS011;28709;52.030;5.652;2022-11-12T09:42:19;5.85;;;3.45;;
43088;SDS011;28709;52.030;5.652;2022-11-12T09:45:00;4.38;;;2.78;;
43088;SDS011;28709;52.030;5.652;2022-11-12T09:47:35;7.43;;;3.67;;
43088;SDS011;28709;52.030;5.652;2022-11-12T09:50:15;6.30;;;2.72;;
43088;SDS011;28709;52.030;5.652;2022-11-12T09:53:01;5.03;;;2.60;;
43088;SDS011;28709;52.030;5.652;2022-11-12T09:55:36;5.03;;;2.97;;
43088;SDS011;28709;52.030;5.652;2022-11-12T09:58:08;5.93;;;2.80;;
43088;SDS011;28709;52.030;5.652;2022-11-12T10:00:36;5.45;;;3.22;;
43088;SDS011;28709;52.030;5.652;2022-11-12T10:03:30;4.63;;;2.95;;
43088;SDS011;28709;52.030;5.652;2022-11-12T10:06:11;6.55;;;2.92;;
43088;SDS011;28709;52.030;5.652;2022-11-12T10:08:55;3.78;;;2.40;;
43088;SDS011;28709;52.030;5.652;2022-11-12T10:16:57;5.10;;;2.72;;
43088;SDS011;28709;52.030;5.652;2022-11-12T10:27:40;4.93;;;2.65;;
43088;SDS011;28709;52.030;5.652;2022-11-12T10:30:20;5.60;;;2.63;;
43088;SDS011;28709;52.030;5.652;2022-11-12T10:32:48;5.85;;;2.83;;
43088;SDS011;28709;52.030;5.652;2022-11-12T10:35:16;4.75;;;2.83;;
43088;SDS011;28709;52.030;5.652;2022-11-12T10:37:48;4.38;;;2.05;;
43088;SDS011;28709;52.030;5.652;2022-11-12T10:42:58;6.05;;;2.50;;
43088;SDS011;28709;52.030;5.652;2022-11-12T10:45:45;2.55;;;2.30;;
43088;SDS011;28709;52.030;5.652;2022-11-12T10:50:56;4.35;;;2.35;;
43088;SDS011;28709;52.030;5.652;2022-11-12T10:53:36;4.15;;;2.42;;
43088;SDS011;28709;52.030;5.652;2022-11-12T10:56:04;5.05;;;2.00;;
43088;SDS011;28709;52.030;5.652;2022-11-12T10:59:05;3.45;;;2.30;;
43088;SDS011;28709;52.030;5.652;2022-11-12T11:01:39;3.58;;;2.40;;
43088;SDS011;28709;52.030;5.652;2022-11-12T11:04:14;3.65;;;2.88;;
43088;SDS011;28709;52.030;5.652;2022-11-12T11:06:45;3.55;;;2.45;;
43088;SDS011;28709;52.030;5.652;2022-11-12T11:11:37;3.22;;;1.95;;
43088;SDS011;28709;52.030;5.652;2022-11-12T11:16:55;2.85;;;1.98;;
43088;SDS011;28709;52.030;5.652;2022-11-12T11:19:36;4.30;;;2.25;;
43088;SDS011;28709;52.030;5.652;2022-11-12T11:30:12;2.35;;;1.85;;
43088;SDS011;28709;52.030;5.652;2022-11-12T11:57:28;1.98;;;1.58;;
43088;SDS011;28709;52.030;5.652;2022-11-12T12:00:16;3.67;;;1.70;;
43088;SDS011;28709;52.030;5.652;2022-11-12T12:06:02;2.08;;;1.63;;
43088;SDS011;28709;52.030;5.652;2022-11-12T12:11:37;1.63;;;1.50;;
43088;SDS011;28709;52.030;5.652;2022-11-12T12:19:59;3.92;;;1.80;;
43088;SDS011;28709;52.030;5.652;2022-11-12T12:23:09;3.65;;;1.42;;
43088;SDS011;28709;52.030;5.652;2022-11-12T12:28:00;1.58;;;1.30;;
43088;SDS011;28709;52.030;5.652;2022-11-12T12:30:33;2.95;;;1.85;;
43088;SDS011;28709;52.030;5.652;2022-11-12T12:38:04;2.55;;;1.60;;
43088;SDS011;28709;52.030;5.652;2022-11-12T12:40:46;3.70;;;1.65;;
43088;SDS011;28709;52.030;5.652;2022-11-12T12:43:50;2.67;;;1.40;;
43088;SDS011;28709;52.030;5.652;2022-11-12T12:46:19;2.10;;;1.60;;
43088;SDS011;28709;52.030;5.652;2022-11-12T12:48:47;2.67;;;1.55;;
43088;SDS011;28709;52.030;5.652;2022-11-12T12:51:15;3.88;;;1.30;;
43088;SDS011;28709;52.030;5.652;2022-11-12T12:53:42;2.15;;;1.27;;
43088;SDS011;28709;52.030;5.652;2022-11-12T13:03:51;1.08;;;0.98;;
43088;SDS011;28709;52.030;5.652;2022-11-12T13:30:06;2.08;;;1.10;;
43088;SDS011;28709;52.030;5.652;2022-11-12T13:32:39;1.98;;;1.25;;
43088;SDS011;28709;52.030;5.652;2022-11-12T13:53:50;1.73;;;1.05;;
43088;SDS011;28709;52.030;5.652;2022-11-12T13:58:54;2.65;;;1.10;;
43088;SDS011;28709;52.030;5.652;2022-11-12T14:01:32;1.55;;;0.68;;
43088;SDS011;28709;52.030;5.652;2022-11-12T14:03:58;1.27;;;0.77;;
43088;SDS011;28709;52.030;5.652;2022-11-12T14:06:33;1.73;;;1.00;;
43088;SDS011;28709;52.030;5.652;2022-11-12T14:21:19;1.75;;;1.15;;
43088;SDS011;28709;52.030;5.652;2022-11-12T14:23:46;1.45;;;1.20;;
43088;SDS011;28709;52.030;5.652;2022-11-12T14:26:31;3.22;;;1.63;;
43088;SDS011;28709;52.030;5.652;2022-11-12T14:29:00;2.40;;;1.38;;
43088;SDS011;28709;52.030;5.652;2022-11-12T14:31:25;2.22;;;1.60;;
43088;SDS011;28709;52.030;5.652;2022-11-12T14:33:51;2.90;;;1.70;;
43088;SDS011;28709;52.030;5.652;2022-11-12T14:36:17;3.60;;;1.77;;
43088;SDS011;28709;52.030;5.652;2022-11-12T14:38:53;7.85;;;2.35;;
43088;SDS011;28709;52.030;5.652;2022-11-12T14:41:23;5.15;;;2.33;;
43088;SDS011;28709;52.030;5.652;2022-11-12T14:43:52;2.97;;;2.03;;
43088;SDS011;28709;52.030;5.652;2022-11-12T14:46:24;4.07;;;2.53;;
43088;SDS011;28709;52.030;5.652;2022-11-12T14:48:58;5.13;;;2.70;;
43088;SDS011;28709;52.030;5.652;2022-11-12T14:51:27;5.28;;;2.67;;
43088;SDS011;28709;52.030;5.652;2022-11-12T14:54:03;4.30;;;3.33;;
43088;SDS011;28709;52.030;5.652;2022-11-12T14:56:44;6.47;;;2.92;;
43088;SDS011;28709;52.030;5.652;2022-11-12T14:59:12;5.85;;;3.55;;
43088;SDS011;28709;52.030;5.652;2022-11-12T15:01:40;4.20;;;2.72;;
43088;SDS011;28709;52.030;5.652;2022-11-12T15:04:35;5.07;;;2.70;;
43088;SDS011;28709;52.030;5.652;2022-11-12T15:07:28;6.28;;;2.78;;
43088;SDS011;28709;52.030;5.652;2022-11-12T15:09:58;13.35;;;3.72;;
43088;SDS011;28709;52.030;5.652;2022-11-12T15:12:28;5.13;;;3.22;;
43088;SDS011;28709;52.030;5.652;2022-11-12T15:15:15;5.30;;;2.83;;
43088;SDS011;28709;52.030;5.652;2022-11-12T15:17:42;7.05;;;3.53;;
43088;SDS011;28709;52.030;5.652;2022-11-12T15:20:12;5.40;;;2.90;;
43088;SDS011;28709;52.030;5.652;2022-11-12T15:22:40;3.65;;;2.30;;
43088;SDS011;28709;52.030;5.652;2022-11-12T15:25:23;3.65;;;2.35;;
43088;SDS011;28709;52.030;5.652;2022-11-12T15:27:50;4.70;;;2.88;;
43088;SDS011;28709;52.030;5.652;2022-11-12T15:33:06;8.55;;;4.13;;
43088;SDS011;28709;52.030;5.652;2022-11-12T15:35:41;8.10;;;4.53;;
43088;SDS011;28709;52.030;5.652;2022-11-12T15:38:12;10.20;;;5.03;;
43088;SDS011;28709;52.030;5.652;2022-11-12T15:40:44;7.50;;;4.70;;
43088;SDS011;28709;52.030;5.652;2022-11-12T15:43:20;6.90;;;4.35;;
43088;SDS011;28709;52.030;5.652;2022-11-12T15:45:51;5.60;;;3.55;;
43088;SDS011;28709;52.030;5.652;2022-11-12T15:48:18;5.05;;;3.28;;
43088;SDS011;28709;52.030;5.652;2022-11-12T15:50:44;6.38;;;3.45;;
43088;SDS011;28709;52.030;5.652;2022-11-12T15:53:11;5.43;;;3.92;;
43088;SDS011;28709;52.030;5.652;2022-11-12T15:55:37;5.53;;;3.40;;
43088;SDS011;28709;52.030;5.652;2022-11-12T15:58:05;5.82;;;3.50;;
43088;SDS011;28709;52.030;5.652;2022-11-12T16:00:35;5.00;;;3.55;;
43088;SDS011;28709;52.030;5.652;2022-11-12T16:05:38;5.95;;;3.55;;
43088;SDS011;28709;52.030;5.652;2022-11-12T16:08:04;9.27;;;4.70;;
43088;SDS011;28709;52.030;5.652;2022-11-12T16:10:30;10.02;;;5.85;;
43088;SDS011;28709;52.030;5.652;2022-11-12T16:12:56;10.18;;;5.13;;
43088;SDS011;28709;52.030;5.652;2022-11-12T16:15:23;6.70;;;4.45;;
43088;SDS011;28709;52.030;5.652;2022-11-12T16:17:50;7.15;;;4.57;;
43088;SDS011;28709;52.030;5.652;2022-11-12T16:20:19;6.55;;;4.57;;
43088;SDS011;28709;52.030;5.652;2022-11-12T16:22:50;6.75;;;3.85;;
43088;SDS011;28709;52.030;5.652;2022-11-12T16:25:16;7.05;;;4.25;;
43088;SDS011;28709;52.030;5.652;2022-11-12T16:27:43;10.68;;;5.85;;
43088;SDS011;28709;52.030;5.652;2022-11-12T16:30:31;7.38;;;4.97;;
43088;SDS011;28709;52.030;5.652;2022-11-12T16:32:56;8.65;;;5.05;;
43088;SDS011;28709;52.030;5.652;2022-11-12T16:35:23;7.65;;;4.32;;
43088;SDS011;28709;52.030;5.652;2022-11-12T16:37:51;10.32;;;5.32;;
43088;SDS011;28709;52.030;5.652;2022-11-12T16:40:23;11.70;;;4.55;;
43088;SDS011;28709;52.030;5.652;2022-11-12T16:42:50;9.75;;;5.68;;
43088;SDS011;28709;52.030;5.652;2022-11-12T16:45:17;10.20;;;5.28;;
43088;SDS011;28709;52.030;5.652;2022-11-12T16:47:47;10.80;;;5.53;;
43088;SDS011;28709;52.030;5.652;2022-11-12T16:50:21;11.77;;;5.70;;
43088;SDS011;28709;52.030;5.652;2022-11-12T16:52:48;9.45;;;5.15;;
43088;SDS011;28709;52.030;5.652;2022-11-12T16:55:15;7.50;;;4.20;;
43088;SDS011;28709;52.030;5.652;2022-11-12T16:57:41;10.25;;;5.22;;
43088;SDS011;28709;52.030;5.652;2022-11-12T17:00:14;7.13;;;5.00;;
43088;SDS011;28709;52.030;5.652;2022-11-12T17:02:41;7.65;;;5.75;;
43088;SDS011;28709;52.030;5.652;2022-11-12T17:05:23;9.95;;;6.10;;
43088;SDS011;28709;52.030;5.652;2022-11-12T17:07:49;10.38;;;6.50;;
43088;SDS011;28709;52.030;5.652;2022-11-12T17:10:19;11.02;;;7.20;;
43088;SDS011;28709;52.030;5.652;2022-11-12T17:12:49;14.90;;;7.00;;
43088;SDS011;28709;52.030;5.652;2022-11-12T17:15:16;17.27;;;7.93;;
43088;SDS011;28709;52.030;5.652;2022-11-12T17:17:41;10.90;;;5.57;;
43088;SDS011;28709;52.030;5.652;2022-11-12T17:20:07;11.35;;;6.28;;
43088;SDS011;28709;52.030;5.652;2022-11-12T17:22:34;10.18;;;6.30;;
43088;SDS011;28709;52.030;5.652;2022-11-12T17:24:59;10.00;;;5.65;;
43088;SDS011;28709;52.030;5.652;2022-11-12T17:27:25;7.97;;;4.70;;
43088;SDS011;28709;52.030;5.652;2022-11-12T17:29:51;8.10;;;4.80;;